createdAt,value
2022-08-17T00:02:25.551Z,97882.34
2022-08-17T00:07:31.162Z,97885.00
2022-08-17T00:12:44.619Z,97880.69
2022-08-17T00:17:49.599Z,97885.84
2022-08-17T00:23:03.989Z,97889.13
2022-08-17T00:28:07.583Z,97881.03
2022-08-17T00:33:16.483Z,97874.97
2022-08-17T00:38:28.844Z,97879.75
2022-08-17T00:43:35.620Z,97878.41
2022-08-17T00:48:39.303Z,97879.53
2022-08-17T00:53:46.422Z,97877.44
2022-08-17T00:58:51.414Z,97866.47
2022-08-17T01:03:55.629Z,97864.38
2022-08-17T01:09:05.480Z,97866.53
2022-08-17T01:14:08.928Z,97851.75
2022-08-17T01:19:17.167Z,97855.00
2022-08-17T01:24:21.781Z,97855.56
2022-08-17T01:29:25.835Z,97858.00
2022-08-17T01:34:42.638Z,97856.06
2022-08-17T01:39:51.973Z,97854.97
2022-08-17T01:44:58.526Z,97857.41
2022-08-17T01:50:08.541Z,97865.28
2022-08-17T01:55:14.532Z,97870.66
2022-08-17T02:00:18.254Z,97873.63
2022-08-17T02:05:21.058Z,97873.81
2022-08-17T02:10:25.400Z,97862.66
2022-08-17T02:15:36.969Z,97865.28
2022-08-17T02:20:41.851Z,97862.13
2022-08-17T02:25:48.848Z,97871.03
2022-08-17T02:31:00.858Z,97872.91
2022-08-17T02:36:06.758Z,97879.03
2022-08-17T02:41:12.962Z,97869.47
2022-08-17T02:46:15.773Z,97866.75
2022-08-17T02:51:18.563Z,97863.53
2022-08-17T02:56:22.667Z,97857.78
2022-08-17T03:01:25.475Z,97859.69
2022-08-17T03:06:29.127Z,97855.13
2022-08-17T03:11:33.199Z,97855.13
2022-08-17T03:16:35.946Z,97853.84
2022-08-17T03:21:39.040Z,97856.28
2022-08-17T03:26:43.224Z,97858.59
2022-08-17T03:31:46.654Z,97864.53
2022-08-17T03:36:49.425Z,97861.38
2022-08-17T03:41:53.477Z,97865.25
2022-08-17T03:47:13.874Z,97862.13
2022-08-17T03:52:42.549Z,97869.94
2022-08-17T03:57:46.909Z,97870.22
2022-08-17T04:02:49.951Z,97866.75
2022-08-17T04:07:52.775Z,97870.00
2022-08-17T04:12:58.211Z,97860.84
2022-08-17T04:18:01.251Z,97862.50
2022-08-17T04:23:06.431Z,97868.44
2022-08-17T04:28:16.153Z,97871.53
2022-08-17T04:33:21.809Z,97872.66
2022-08-17T04:38:26.213Z,97864.63
2022-08-17T04:43:32.844Z,97861.09
2022-08-17T04:48:38.202Z,97865.91
2022-08-17T04:53:44.029Z,97865.66
2022-08-17T04:58:51.527Z,97866.50
2022-08-17T05:03:56.094Z,97865.91
2022-08-17T05:08:59.942Z,97874.91
2022-08-17T05:14:04.665Z,97878.22
2022-08-17T05:19:07.392Z,97879.31
2022-08-17T05:24:38.510Z,97873.50
2022-08-17T05:29:35.617Z,97870.16
2022-08-17T05:34:39.260Z,97885.44
2022-08-17T05:39:42.010Z,97889.31
2022-08-17T05:44:46.118Z,97890.25
2022-08-17T05:49:49.258Z,97883.31
2022-08-17T05:55:04.894Z,97867.97
2022-08-17T06:00:15.697Z,97854.97
2022-08-17T06:05:39.920Z,97865.31
2022-08-17T06:10:50.522Z,97864.91
2022-08-17T06:16:02.979Z,97870.84
2022-08-17T06:21:08.794Z,97873.91
2022-08-17T06:26:15.644Z,97860.69
2022-08-17T06:31:27.380Z,97863.91
2022-08-17T06:36:41.700Z,97870.66
2022-08-17T06:41:54.912Z,97870.09
2022-08-17T06:47:07.103Z,97872.19
2022-08-17T06:52:43.360Z,97870.34
2022-08-17T06:57:43.352Z,97874.69
2022-08-17T07:02:53.025Z,97888.03
2022-08-17T07:08:03.332Z,97889.69
2022-08-17T07:13:25.590Z,97883.47
2022-08-17T07:18:33.061Z,97875.50
2022-08-17T07:23:47.412Z,97886.72
2022-08-17T07:28:50.780Z,97886.53
2022-08-17T07:34:04.398Z,97887.50
2022-08-17T07:39:07.112Z,97884.19
2022-08-17T07:44:16.402Z,97882.94
2022-08-17T07:49:24.775Z,97879.50
2022-08-17T07:54:32.476Z,97891.56
2022-08-17T07:59:36.873Z,97897.41
2022-08-17T08:05:02.385Z,97912.41
2022-08-17T08:10:10.870Z,97917.13
2022-08-17T08:15:18.489Z,97914.59
2022-08-17T08:20:40.879Z,97921.63
2022-08-17T08:26:09.403Z,97923.63
2022-08-17T08:31:25.191Z,97934.81
2022-08-17T08:37:02.024Z,97935.94
2022-08-17T08:42:12.546Z,97931.19
2022-08-17T08:47:23.379Z,97931.22
2022-08-17T08:52:49.168Z,97927.56
2022-08-17T08:57:57.933Z,97924.59
2022-08-17T09:03:20.032Z,97933.72
2022-08-17T09:08:38.405Z,97928.91
2022-08-17T09:13:54.379Z,97939.91
2022-08-17T09:19:04.983Z,97937.50
2022-08-17T09:24:15.428Z,97933.88
2022-08-17T09:29:32.568Z,97936.00
2022-08-17T09:34:51.044Z,97940.72
2022-08-17T09:40:10.450Z,97926.44
2022-08-17T09:45:27.517Z,97917.88
2022-08-17T09:51:04.005Z,97934.72
2022-08-17T09:56:20.840Z,97946.75
2022-08-17T10:01:31.510Z,97949.59
2022-08-17T10:06:53.610Z,97937.25
2022-08-17T10:12:20.303Z,97954.53
2022-08-17T10:17:28.787Z,97949.97
2022-08-17T10:22:57.997Z,97946.41
2022-08-17T10:28:09.795Z,97958.84
2022-08-17T10:33:27.834Z,97971.59
2022-08-17T10:38:45.996Z,97961.09
2022-08-17T10:44:37.031Z,97964.91
2022-08-17T10:49:29.392Z,97977.56
2022-08-17T10:54:41.685Z,97973.19
2022-08-17T10:59:53.756Z,97962.59
2022-08-17T11:05:24.830Z,97966.94
2022-08-17T11:10:45.568Z,97953.38
2022-08-17T11:16:07.761Z,97947.41
2022-08-17T11:21:40.409Z,97938.50
2022-08-17T11:26:48.738Z,97934.97
2022-08-17T11:32:07.737Z,97940.06
2022-08-17T11:37:42.710Z,97932.91
2022-08-17T11:43:14.935Z,97935.28
2022-08-17T11:48:40.708Z,97941.22
2022-08-17T11:54:30.689Z,97950.53
2022-08-17T11:59:57.690Z,97948.06
2022-08-17T12:05:13.903Z,97959.72
2022-08-17T12:10:21.597Z,97946.84
2022-08-17T12:15:30.664Z,97940.63
2022-08-17T12:20:39.526Z,97931.31
2022-08-17T12:25:49.329Z,97918.41
2022-08-17T12:30:52.970Z,97924.53
2022-08-17T12:36:02.769Z,97923.44
2022-08-17T12:41:21.921Z,97921.75
2022-08-17T12:46:24.690Z,97921.13
2022-08-17T12:51:30.036Z,97912.50
2022-08-17T12:56:32.834Z,97909.50
2022-08-17T13:01:38.782Z,97908.84
2022-08-17T13:06:50.903Z,97898.25
2022-08-17T13:12:02.388Z,97899.38
2022-08-17T13:17:13.290Z,97900.25
2022-08-17T13:22:23.795Z,97893.44
2022-08-17T13:27:28.683Z,97891.78
2022-08-17T13:32:43.667Z,97892.84
2022-08-17T13:37:58.949Z,97888.38
2022-08-17T13:43:03.280Z,97889.44
2022-08-17T13:48:12.498Z,97878.28
2022-08-17T13:53:21.143Z,97874.75
2022-08-17T13:58:27.588Z,97881.28
2022-08-17T14:03:30.362Z,97870.72
2022-08-17T14:08:34.911Z,97883.16
2022-08-17T14:13:37.707Z,97860.22
2022-08-17T14:18:56.918Z,97882.69
2022-08-17T14:24:01.560Z,97862.97
2022-08-17T14:29:05.135Z,97859.63
2022-08-17T14:34:19.833Z,97839.56
2022-08-17T14:39:25.247Z,97853.63
2022-08-17T14:44:28.121Z,97857.28
2022-08-17T14:49:31.516Z,97866.66
2022-08-17T14:54:35.708Z,97848.25
2022-08-17T14:59:38.521Z,97856.72
2022-08-17T15:04:45.526Z,97845.66
2022-08-17T15:09:50.068Z,97841.56
2022-08-17T15:14:53.177Z,97849.84
2022-08-17T15:19:55.875Z,97862.22
2022-08-17T15:25:05.467Z,97856.88
2022-08-17T15:30:09.885Z,97867.50
2022-08-17T15:35:14.310Z,97840.81
2022-08-17T15:40:19.271Z,97840.31
2022-08-17T15:45:26.929Z,97846.03
2022-08-17T15:50:30.812Z,97854.47
2022-08-17T15:55:36.592Z,97847.78
2022-08-17T16:01:14.192Z,97864.97
2022-08-17T16:06:02.619Z,97864.06
2022-08-17T16:11:08.287Z,97849.03
2022-08-17T16:16:11.732Z,97844.50
2022-08-17T16:21:42.461Z,97844.94
2022-08-17T16:26:47.331Z,97842.84
2022-08-17T16:31:51.203Z,97840.38
2022-08-17T16:36:56.487Z,97838.63
2022-08-17T16:42:02.673Z,97847.38
2022-08-17T16:47:07.381Z,97844.06
2022-08-17T16:52:11.313Z,97845.22
2022-08-17T16:57:17.452Z,97852.22
2022-08-17T17:02:31.369Z,97848.97
2022-08-17T17:07:49.613Z,97855.97
2022-08-17T17:13:03.195Z,97858.28
2022-08-17T17:18:12.250Z,97862.31
2022-08-17T17:23:29.043Z,97872.09
2022-08-17T17:28:43.439Z,97867.47
2022-08-17T17:33:50.364Z,97865.81
2022-08-17T17:38:55.549Z,97867.25
2022-08-17T17:44:08.945Z,97875.13
2022-08-17T17:49:14.207Z,97872.13
2022-08-17T17:54:32.450Z,97877.88
2022-08-17T17:59:49.522Z,97884.50
2022-08-17T18:05:03.934Z,97886.91
2022-08-17T18:10:29.665Z,97895.25
2022-08-17T18:15:37.847Z,97902.22
2022-08-17T18:20:43.295Z,97903.66
2022-08-17T18:25:58.695Z,97909.97
2022-08-17T18:31:22.001Z,97916.09
2022-08-17T18:36:29.554Z,97909.59
2022-08-17T18:41:41.371Z,97907.63
2022-08-17T18:46:45.497Z,97918.97
2022-08-17T18:51:48.302Z,97929.03
2022-08-17T18:56:56.896Z,97942.41
2022-08-17T19:02:33.664Z,97945.59
2022-08-17T19:07:45.781Z,97943.28
2022-08-17T19:12:52.714Z,97946.22
2022-08-17T19:18:00.199Z,97948.28
2022-08-17T19:23:12.139Z,97966.47
2022-08-17T19:28:22.907Z,97981.19
2022-08-17T19:33:27.353Z,97985.72
2022-08-17T19:38:45.607Z,97981.00
2022-08-17T19:44:01.926Z,97989.47
2022-08-17T19:49:14.591Z,97995.41
2022-08-17T19:54:26.437Z,98000.56
2022-08-17T19:59:50.987Z,98016.13
2022-08-17T20:04:59.770Z,98023.09
2022-08-17T20:10:07.890Z,98015.63
2022-08-17T20:15:12.927Z,98006.66
2022-08-17T20:20:27.693Z,98001.50
2022-08-17T20:25:36.950Z,98008.03
2022-08-17T20:30:41.100Z,98016.03
2022-08-17T20:36:03.371Z,98021.72
2022-08-17T20:41:16.067Z,98013.00
2022-08-17T20:46:50.184Z,98000.72
2022-08-17T20:52:02.556Z,98008.28
2022-08-17T20:57:06.179Z,98011.84
2022-08-17T21:02:21.530Z,98016.06
2022-08-17T21:07:29.944Z,98022.38
2022-08-17T21:12:48.378Z,98018.63
2022-08-17T21:18:02.857Z,98013.00
2022-08-17T21:23:37.072Z,98015.34
2022-08-17T21:29:00.888Z,98020.97
2022-08-17T21:34:35.523Z,98044.00
2022-08-17T21:39:41.634Z,98056.97
2022-08-17T21:44:49.582Z,98054.06
2022-08-17T21:49:52.814Z,98053.47
2022-08-17T21:55:00.271Z,98047.59
2022-08-17T22:00:15.324Z,98051.53
2022-08-17T22:05:30.169Z,98042.38
2022-08-17T22:10:39.354Z,98044.66
2022-08-17T22:15:43.765Z,98053.47
2022-08-17T22:20:50.721Z,98045.50
2022-08-17T22:26:04.207Z,98050.75
2022-08-17T22:31:09.830Z,98045.53
2022-08-17T22:36:29.242Z,98053.03
2022-08-17T22:41:51.130Z,98058.69
2022-08-17T22:47:04.415Z,98072.84
2022-08-17T22:52:29.946Z,98082.66
2022-08-17T22:57:51.503Z,98080.97
2022-08-17T23:03:09.001Z,98081.31
2022-08-17T23:08:12.710Z,98079.03
2022-08-17T23:13:16.894Z,98072.28
2022-08-17T23:18:20.428Z,98073.91
2022-08-17T23:23:23.895Z,98077.22
2022-08-17T23:28:28.500Z,98069.31
2022-08-17T23:33:34.667Z,98069.72
2022-08-17T23:38:37.526Z,98071.38
2022-08-17T23:43:44.086Z,98072.41
2022-08-17T23:48:47.579Z,98070.09
2022-08-17T23:53:55.508Z,98079.91
2022-08-17T23:59:00.178Z,98073.84
